createdAt,value
2023-12-09T00:02:29.127Z,16.67
2023-12-09T00:07:35.073Z,10.23
2023-12-09T00:12:44.024Z,8.03
2023-12-09T00:17:52.758Z,11.82
2023-12-09T00:22:58.569Z,8.60
2023-12-09T00:28:07.088Z,7.82
2023-12-09T00:33:12.944Z,8.05
2023-12-09T00:38:18.595Z,14.35
2023-12-09T00:43:27.270Z,12.48
2023-12-09T00:48:33.088Z,13.30
2023-12-09T00:53:38.874Z,10.85
2023-12-09T00:58:47.406Z,10.20
2023-12-09T01:03:53.263Z,9.00
2023-12-09T01:09:00.273Z,7.85
2023-12-09T01:14:09.178Z,10.17
2023-12-09T01:19:14.832Z,10.88
2023-12-09T01:24:21.375Z,7.82
2023-12-09T01:29:30.010Z,5.70
2023-12-09T01:34:35.894Z,7.13
2023-12-09T01:39:41.988Z,9.93
2023-12-09T01:44:50.903Z,6.82
2023-12-09T01:49:57.131Z,7.63
2023-12-09T01:55:04.771Z,9.43
2023-12-09T02:00:15.307Z,7.97
2023-12-09T02:05:21.129Z,9.17
2023-12-09T02:10:29.846Z,7.05
2023-12-09T02:15:43.944Z,11.18
2023-12-09T02:20:49.793Z,8.37
2023-12-09T02:26:04.697Z,9.18
2023-12-09T02:31:15.930Z,8.13
2023-12-09T02:36:26.135Z,7.47
2023-12-09T02:41:35.338Z,7.82
2023-12-09T02:46:41.068Z,7.17
2023-12-09T02:51:47.071Z,5.72
2023-12-09T02:56:55.287Z,4.80
2023-12-09T03:02:01.158Z,7.45
2023-12-09T03:07:07.141Z,10.30
2023-12-09T03:12:15.979Z,8.53
2023-12-09T03:17:22.800Z,10.23
2023-12-09T03:22:28.632Z,9.90
2023-12-09T03:27:37.491Z,9.32
2023-12-09T03:32:43.579Z,9.65
2023-12-09T03:37:49.230Z,7.43
2023-12-09T03:42:57.415Z,9.02
2023-12-09T03:48:03.269Z,11.57
2023-12-09T03:53:09.173Z,9.32
2023-12-09T03:58:17.925Z,14.05
2023-12-09T04:03:23.614Z,10.93
2023-12-09T04:08:29.939Z,8.05
2023-12-09T04:13:38.291Z,11.27
2023-12-09T04:18:44.276Z,7.03
2023-12-09T04:23:50.024Z,4.38
2023-12-09T04:28:58.722Z,7.80
2023-12-09T04:34:04.398Z,7.88
2023-12-09T04:39:10.548Z,8.50
2023-12-09T04:44:18.824Z,4.60
2023-12-09T04:49:25.255Z,7.65
2023-12-09T04:54:32.198Z,8.40
2023-12-09T04:59:40.855Z,10.15
2023-12-09T05:04:49.166Z,8.37
2023-12-09T05:09:54.854Z,9.50
2023-12-09T05:15:04.518Z,7.15
2023-12-09T05:20:12.375Z,10.33
2023-12-09T05:25:18.246Z,7.45
2023-12-09T05:30:26.995Z,6.43
2023-12-09T05:35:32.767Z,9.68
2023-12-09T05:40:38.545Z,12.45
2023-12-09T05:45:47.603Z,5.87
2023-12-09T05:50:53.428Z,11.50
2023-12-09T05:55:59.117Z,10.23
2023-12-09T06:01:08.024Z,11.82
2023-12-09T06:06:14.680Z,8.30
2023-12-09T06:11:20.561Z,8.87
2023-12-09T06:16:32.230Z,11.18
2023-12-09T06:21:38.016Z,11.00
2023-12-09T06:26:47.377Z,7.43
2023-12-09T06:31:55.601Z,5.45
2023-12-09T06:37:01.332Z,11.83
2023-12-09T06:42:08.040Z,9.18
2023-12-09T06:47:17.072Z,6.67
2023-12-09T06:52:22.834Z,4.88
2023-12-09T06:57:30.386Z,4.97
2023-12-09T07:02:48.824Z,5.53
2023-12-09T07:08:03.464Z,6.82
2023-12-09T07:13:09.140Z,5.67
2023-12-09T07:18:20.029Z,6.95
2023-12-09T07:23:27.087Z,5.70
2023-12-09T07:28:32.946Z,6.20
2023-12-09T07:33:41.356Z,5.70
2023-12-09T07:38:47.206Z,5.07
2023-12-09T07:43:53.155Z,3.85
2023-12-09T07:49:04.202Z,5.75
2023-12-09T07:54:11.132Z,2.97
2023-12-09T07:59:18.505Z,7.97
2023-12-09T08:04:27.278Z,7.87
2023-12-09T08:09:33.112Z,4.22
2023-12-09T08:14:40.901Z,4.75
2023-12-09T08:19:49.278Z,6.37
2023-12-09T08:24:55.255Z,10.50
2023-12-09T08:30:01.028Z,7.33
2023-12-09T08:35:11.834Z,3.92
2023-12-09T08:40:18.679Z,4.80
2023-12-09T08:45:25.569Z,3.97
2023-12-09T08:50:34.074Z,5.35
2023-12-09T08:55:40.172Z,5.10
2023-12-09T09:00:48.383Z,4.13
2023-12-09T09:05:57.794Z,6.43
2023-12-09T09:11:05.234Z,11.40
2023-12-09T09:16:11.158Z,6.68
2023-12-09T09:21:20.612Z,6.13
2023-12-09T09:26:26.288Z,5.38
2023-12-09T09:31:32.135Z,8.63
2023-12-09T09:36:41.130Z,9.27
2023-12-09T09:42:06.079Z,4.32
2023-12-09T09:47:14.332Z,4.63
2023-12-09T09:52:25.690Z,6.93
2023-12-09T09:57:34.955Z,7.38
2023-12-09T10:02:41.880Z,7.17
2023-12-09T10:07:50.917Z,9.48
2023-12-09T10:12:58.867Z,5.97
2023-12-09T10:18:08.355Z,12.70
2023-12-09T10:23:17.052Z,5.68
2023-12-09T10:28:24.874Z,5.33
2023-12-09T10:33:32.663Z,5.55
2023-12-09T10:38:45.755Z,10.30
2023-12-09T10:43:51.459Z,7.13
2023-12-09T10:48:59.111Z,5.60
2023-12-09T10:54:08.328Z,13.83
2023-12-09T10:59:15.090Z,8.57
2023-12-09T11:04:21.006Z,9.60
2023-12-09T11:09:30.239Z,7.07
2023-12-09T11:14:36.407Z,11.20
2023-12-09T11:19:42.377Z,11.07
2023-12-09T11:24:51.645Z,7.88
2023-12-09T11:29:57.826Z,9.17
2023-12-09T11:35:05.155Z,8.43
2023-12-09T11:40:14.979Z,6.13
2023-12-09T11:45:20.704Z,13.50
2023-12-09T11:50:26.338Z,7.07
2023-12-09T11:55:34.397Z,11.30
2023-12-09T12:00:40.055Z,6.38
2023-12-09T12:05:45.717Z,3.60
2023-12-09T12:10:54.192Z,7.07
2023-12-09T12:15:59.943Z,8.15
2023-12-09T12:21:07.057Z,6.13
2023-12-09T12:26:15.625Z,8.98
2023-12-09T12:31:22.385Z,5.60
2023-12-09T12:36:28.607Z,9.67
2023-12-09T12:41:37.056Z,12.35
2023-12-09T12:46:42.961Z,10.20
2023-12-09T12:51:49.541Z,4.57
2023-12-09T12:56:57.945Z,4.78
2023-12-09T13:02:04.135Z,8.57
2023-12-09T13:07:09.933Z,9.00
2023-12-09T13:12:19.501Z,3.63
2023-12-09T13:17:25.679Z,4.65
2023-12-09T13:22:32.199Z,7.47
2023-12-09T13:27:40.718Z,6.37
2023-12-09T13:32:47.158Z,5.88
2023-12-09T13:37:53.565Z,6.23
2023-12-09T13:43:02.377Z,8.55
2023-12-09T13:48:08.561Z,7.35
2023-12-09T13:53:14.276Z,8.17
2023-12-09T13:58:22.860Z,5.78
2023-12-09T14:03:28.527Z,14.20
2023-12-09T14:08:35.463Z,10.07
2023-12-09T14:13:43.841Z,7.22
2023-12-09T14:18:49.819Z,6.47
2023-12-09T14:23:55.850Z,11.05
2023-12-09T14:29:04.485Z,4.97
2023-12-09T14:34:10.335Z,4.82
2023-12-09T14:39:17.884Z,6.25
2023-12-09T14:44:26.342Z,9.40
2023-12-09T14:49:32.280Z,7.93
2023-12-09T14:54:38.027Z,7.93
2023-12-09T14:59:46.589Z,7.40
2023-12-09T15:04:52.328Z,7.20
2023-12-09T15:09:58.043Z,3.80
2023-12-09T15:15:07.644Z,5.63
2023-12-09T15:20:14.241Z,5.93
2023-12-09T15:25:21.415Z,3.28
2023-12-09T15:30:31.435Z,6.53
2023-12-09T15:35:38.442Z,5.83
2023-12-09T15:40:45.116Z,3.83
2023-12-09T15:45:56.098Z,4.60
2023-12-09T15:51:03.298Z,4.07
2023-12-09T15:56:11.070Z,4.22
2023-12-09T16:01:19.206Z,2.23
2023-12-09T16:06:27.045Z,2.95
2023-12-09T16:11:32.806Z,4.97
2023-12-09T16:16:41.221Z,4.55
2023-12-09T16:21:47.863Z,4.47
2023-12-09T16:26:53.463Z,2.50
2023-12-09T16:32:02.005Z,5.07
2023-12-09T16:37:07.684Z,5.20
2023-12-09T16:42:13.283Z,5.65
2023-12-09T16:47:21.580Z,3.45
2023-12-09T16:52:27.424Z,4.53
2023-12-09T16:57:36.502Z,2.10
2023-12-09T17:02:45.341Z,2.73
2023-12-09T17:07:51.323Z,3.17
2023-12-09T17:12:57.527Z,1.90
2023-12-09T17:18:07.169Z,2.97
2023-12-09T17:23:15.920Z,3.03
2023-12-09T17:28:21.843Z,5.13
2023-12-09T17:33:30.268Z,4.13
2023-12-09T17:38:36.427Z,6.30
2023-12-09T17:43:41.948Z,2.93
2023-12-09T17:48:50.319Z,3.15
2023-12-09T17:53:55.926Z,4.60
2023-12-09T17:59:02.256Z,2.67
2023-12-09T18:04:13.607Z,4.53
2023-12-09T18:09:19.257Z,3.60
2023-12-09T18:14:24.803Z,2.88
2023-12-09T18:19:33.726Z,4.87
2023-12-09T18:24:40.446Z,5.88
2023-12-09T18:29:46.631Z,4.40
2023-12-09T18:34:54.779Z,4.50
2023-12-09T18:40:00.828Z,3.33
2023-12-09T18:45:08.665Z,5.33
2023-12-09T18:50:17.181Z,5.22
2023-12-09T18:55:23.188Z,5.75
2023-12-09T19:00:28.943Z,4.20
2023-12-09T19:05:37.411Z,3.78
2023-12-09T19:10:43.713Z,4.53
2023-12-09T19:15:49.879Z,3.92
2023-12-09T19:20:58.243Z,6.13
2023-12-09T19:26:04.343Z,5.70
2023-12-09T19:31:10.141Z,10.77
2023-12-09T19:36:19.928Z,9.13
2023-12-09T19:41:26.394Z,7.82
2023-12-09T19:46:32.638Z,8.95
2023-12-09T19:51:41.300Z,8.73
2023-12-09T19:56:47.003Z,8.82
2023-12-09T20:01:56.172Z,10.03
2023-12-09T20:07:05.179Z,9.15
2023-12-09T20:12:11.695Z,10.23
2023-12-09T20:17:20.510Z,8.07
2023-12-09T20:22:29.744Z,8.80
2023-12-09T20:27:36.315Z,6.13
2023-12-09T20:32:42.511Z,8.63
2023-12-09T20:37:51.504Z,7.13
2023-12-09T20:42:57.406Z,11.13
2023-12-09T20:48:03.233Z,10.18
2023-12-09T20:53:12.877Z,9.27
2023-12-09T20:58:18.428Z,14.05
2023-12-09T21:03:24.422Z,13.75
2023-12-09T21:08:35.739Z,10.40
2023-12-09T21:13:42.009Z,8.45
2023-12-09T21:18:48.755Z,11.73
2023-12-09T21:23:57.392Z,11.10
2023-12-09T21:29:03.673Z,12.07
2023-12-09T21:34:09.629Z,14.47
2023-12-09T21:39:18.283Z,13.80
2023-12-09T21:44:24.308Z,18.30
2023-12-09T21:49:30.500Z,12.10
2023-12-09T21:54:39.374Z,18.27
2023-12-09T21:59:45.802Z,17.20
2023-12-09T22:04:51.864Z,14.68
2023-12-09T22:10:00.316Z,17.30
2023-12-09T22:15:07.435Z,13.05
2023-12-09T22:20:13.938Z,14.07
2023-12-09T22:25:22.407Z,11.60
2023-12-09T22:30:28.427Z,16.65
2023-12-09T22:35:35.307Z,17.13
2023-12-09T22:40:44.593Z,19.98
2023-12-09T22:45:50.606Z,15.25
2023-12-09T22:50:57.233Z,13.90
2023-12-09T22:56:12.931Z,14.50
2023-12-09T23:01:24.435Z,19.33
2023-12-09T23:06:30.616Z,18.33
2023-12-09T23:11:39.246Z,19.85
2023-12-09T23:16:46.443Z,19.67
2023-12-09T23:21:52.493Z,20.77
2023-12-09T23:27:01.038Z,13.43
2023-12-09T23:32:07.527Z,19.13
2023-12-09T23:37:13.367Z,18.27
2023-12-09T23:42:22.029Z,20.13
2023-12-09T23:47:28.150Z,17.25
2023-12-09T23:52:33.937Z,16.53
2023-12-09T23:57:42.720Z,19.58
